createdAt,value
2022-09-12T00:01:23.377Z,86.49
2022-09-12T00:03:58.112Z,87.06
2022-09-12T00:06:30.314Z,86.82
2022-09-12T00:09:00.098Z,86.58
2022-09-12T00:11:27.082Z,86.46
2022-09-12T00:14:01.645Z,86.35
2022-09-12T00:16:30.001Z,85.94
2022-09-12T00:18:56.797Z,86.17
2022-09-12T00:21:23.916Z,86.74
2022-09-12T00:23:51.469Z,86.60
2022-09-12T00:26:18.929Z,86.72
2022-09-12T00:28:45.761Z,86.71
2022-09-12T00:31:15.799Z,86.41
2022-09-12T00:33:42.946Z,86.48
2022-09-12T00:36:15.288Z,86.77
2022-09-12T00:38:42.603Z,86.72
2022-09-12T00:41:25.125Z,86.81
2022-09-12T00:43:58.476Z,86.20
2022-09-12T00:46:39.133Z,86.29
2022-09-12T00:49:16.186Z,86.21
2022-09-12T00:51:48.178Z,86.70
2022-09-12T00:54:19.613Z,86.98
2022-09-12T00:56:48.509Z,86.79
2022-09-12T00:59:19.507Z,86.80
2022-09-12T01:01:49.655Z,87.16
2022-09-12T01:04:19.974Z,86.72
2022-09-12T01:06:47.175Z,86.54
2022-09-12T01:09:17.918Z,86.44
2022-09-12T01:11:47.067Z,86.22
2022-09-12T01:14:17.563Z,85.91
2022-09-12T01:16:45.731Z,85.88
2022-09-12T01:19:18.741Z,85.83
2022-09-12T01:22:05.455Z,86.03
2022-09-12T01:24:59.049Z,85.79
2022-09-12T01:27:34.868Z,85.71
2022-09-12T01:30:24.382Z,85.74
2022-09-12T01:33:17.972Z,85.58
2022-09-12T01:36:02.972Z,85.71
2022-09-12T01:38:48.339Z,85.81
2022-09-12T01:41:37.841Z,85.87
2022-09-12T01:44:08.904Z,86.31
2022-09-12T01:47:05.448Z,86.23
2022-09-12T01:49:59.719Z,86.44
2022-09-12T01:52:34.827Z,86.51
2022-09-12T01:55:12.773Z,86.86
2022-09-12T01:58:05.119Z,86.96
2022-09-12T02:00:42.566Z,87.58
2022-09-12T02:03:14.960Z,87.57
2022-09-12T02:05:47.625Z,87.84
2022-09-12T02:08:28.553Z,88.12
2022-09-12T02:11:04.080Z,88.19
2022-09-12T02:13:37.583Z,88.10
2022-09-12T02:16:10.731Z,88.23
2022-09-12T02:18:43.419Z,88.42
2022-09-12T02:21:10.391Z,88.47
2022-09-12T02:23:48.104Z,88.21
2022-09-12T02:26:30.973Z,88.13
2022-09-12T02:28:57.675Z,88.08
2022-09-12T02:31:42.765Z,88.32
2022-09-12T02:34:27.868Z,88.53
2022-09-12T02:37:27.201Z,88.34
2022-09-12T02:39:56.803Z,88.40
2022-09-12T02:42:24.334Z,88.46
2022-09-12T02:44:52.693Z,88.38
2022-09-12T02:47:31.454Z,88.32
2022-09-12T02:49:59.418Z,88.37
2022-09-12T02:52:28.064Z,88.31
2022-09-12T02:54:57.293Z,88.80
2022-09-12T02:57:23.849Z,88.71
2022-09-12T02:59:55.586Z,88.70
2022-09-12T03:02:40.611Z,88.53
2022-09-12T03:05:09.968Z,88.67
2022-09-12T03:07:42.536Z,88.50
2022-09-12T03:10:17.907Z,88.21
2022-09-12T03:13:24.830Z,88.26
2022-09-12T03:16:12.332Z,88.34
2022-09-12T03:18:47.810Z,88.29
2022-09-12T03:21:30.269Z,88.34
2022-09-12T03:24:15.959Z,88.45
2022-09-12T03:26:53.053Z,88.27
2022-09-12T03:29:20.339Z,88.02
2022-09-12T03:31:52.898Z,88.23
2022-09-12T03:34:20.913Z,88.19
2022-09-12T03:36:47.771Z,88.36
2022-09-12T03:39:14.626Z,88.37
2022-09-12T03:41:41.071Z,88.07
2022-09-12T03:44:07.744Z,88.05
2022-09-12T03:46:34.251Z,87.65
2022-09-12T03:49:00.807Z,87.84
2022-09-12T03:51:27.401Z,88.03
2022-09-12T03:53:54.191Z,88.01
2022-09-12T03:56:20.822Z,88.19
2022-09-12T03:58:47.356Z,88.25
2022-09-12T04:01:18.928Z,88.48
2022-09-12T04:03:48.049Z,88.94
2022-09-12T04:06:17.391Z,89.02
2022-09-12T04:08:44.617Z,89.16
2022-09-12T04:11:14.765Z,89.16
2022-09-12T04:13:43.197Z,89.30
2022-09-12T04:16:11.120Z,89.38
2022-09-12T04:18:38.244Z,89.43
2022-09-12T04:21:10.425Z,89.40
2022-09-12T04:23:36.832Z,89.57
2022-09-12T04:26:06.520Z,89.47
2022-09-12T04:28:34.523Z,89.28
2022-09-12T04:31:07.546Z,89.37
2022-09-12T04:33:35.217Z,89.67
2022-09-12T04:36:06.954Z,89.79
2022-09-12T04:38:34.981Z,89.60
2022-09-12T04:41:01.739Z,89.68
2022-09-12T04:43:28.233Z,90.03
2022-09-12T04:45:54.703Z,90.00
2022-09-12T04:48:21.168Z,89.86
2022-09-12T04:50:47.580Z,90.26
2022-09-12T04:53:14.012Z,90.53
2022-09-12T04:55:40.435Z,90.37
2022-09-12T04:58:06.849Z,90.75
2022-09-12T05:00:33.250Z,90.78
2022-09-12T05:03:00.237Z,91.04
2022-09-12T05:05:26.767Z,91.02
2022-09-12T05:07:53.192Z,90.97
2022-09-12T05:10:19.555Z,90.97
2022-09-12T05:12:46.050Z,90.97
2022-09-12T05:15:12.470Z,91.21
2022-09-12T05:17:38.830Z,91.40
2022-09-12T05:20:05.603Z,91.37
2022-09-12T05:22:33.060Z,91.49
2022-09-12T05:24:59.451Z,91.53
2022-09-12T05:27:25.845Z,91.48
2022-09-12T05:29:52.274Z,91.62
2022-09-12T05:32:18.680Z,91.65
2022-09-12T05:34:45.316Z,91.77
2022-09-12T05:37:12.616Z,91.84
2022-09-12T05:39:39.099Z,91.76
2022-09-12T05:42:06.091Z,92.10
2022-09-12T05:44:33.342Z,91.86
2022-09-12T05:46:59.782Z,92.10
2022-09-12T05:49:26.223Z,92.15
2022-09-12T05:51:52.703Z,91.79
2022-09-12T05:54:20.623Z,91.81
2022-09-12T05:56:47.381Z,91.74
2022-09-12T05:59:21.492Z,91.58
2022-09-12T06:01:48.981Z,91.45
2022-09-12T06:04:15.837Z,91.72
2022-09-12T06:06:47.249Z,91.47
2022-09-12T06:09:15.854Z,91.20
2022-09-12T06:11:42.945Z,91.72
2022-09-12T06:14:11.451Z,91.91
2022-09-12T06:16:38.962Z,91.67
2022-09-12T06:19:08.048Z,91.67
2022-09-12T06:21:35.372Z,91.65
2022-09-12T06:24:02.430Z,91.52
2022-09-12T06:26:29.844Z,91.85
2022-09-12T06:28:58.044Z,92.13
2022-09-12T06:31:33.972Z,92.19
2022-09-12T06:34:02.875Z,92.22
2022-09-12T06:36:32.673Z,91.85
2022-09-12T06:39:23.874Z,91.75
2022-09-12T06:41:52.048Z,91.61
2022-09-12T06:44:19.474Z,91.50
2022-09-12T06:46:46.208Z,91.63
2022-09-12T06:49:16.104Z,91.66
2022-09-12T06:51:42.608Z,91.82
2022-09-12T06:54:12.072Z,91.96
2022-09-12T06:56:38.877Z,92.02
2022-09-12T06:59:05.264Z,91.73
2022-09-12T07:01:31.997Z,91.61
2022-09-12T07:04:03.244Z,91.93
2022-09-12T07:06:35.355Z,91.93
2022-09-12T07:09:04.632Z,92.17
2022-09-12T07:11:33.757Z,91.99
2022-09-12T07:14:02.162Z,91.44
2022-09-12T07:16:30.327Z,91.16
2022-09-12T07:19:02.602Z,91.83
2022-09-12T07:21:30.060Z,92.29
2022-09-12T07:24:00.201Z,92.34
2022-09-12T07:26:28.925Z,92.24
2022-09-12T07:29:12.773Z,92.20
2022-09-12T07:31:44.749Z,91.82
2022-09-12T07:34:11.611Z,91.22
2022-09-12T07:36:39.135Z,90.61
2022-09-12T07:39:05.912Z,90.75
2022-09-12T07:41:35.654Z,90.11
2022-09-12T07:44:03.195Z,89.59
2022-09-12T07:46:31.363Z,90.53
2022-09-12T07:48:59.688Z,90.35
2022-09-12T07:51:29.720Z,89.63
2022-09-12T07:53:56.627Z,89.12
2022-09-12T07:56:28.775Z,89.22
2022-09-12T07:58:56.857Z,88.95
2022-09-12T08:01:23.547Z,89.09
2022-09-12T08:03:54.450Z,88.41
2022-09-12T08:06:24.129Z,87.86
2022-09-12T08:08:52.151Z,88.11
2022-09-12T08:11:20.258Z,87.97
2022-09-12T08:13:49.571Z,88.49
2022-09-12T08:16:21.435Z,88.01
2022-09-12T08:18:49.186Z,86.22
2022-09-12T08:21:18.579Z,84.99
2022-09-12T08:23:45.154Z,85.97
2022-09-12T08:26:13.219Z,86.62
2022-09-12T08:28:43.338Z,86.83
2022-09-12T08:31:15.155Z,86.83
2022-09-12T08:33:41.670Z,84.67
2022-09-12T08:36:11.313Z,85.37
2022-09-12T08:38:39.647Z,86.21
2022-09-12T08:41:18.098Z,85.87
2022-09-12T08:44:07.102Z,84.84
2022-09-12T08:47:07.357Z,85.71
2022-09-12T08:49:43.304Z,85.01
2022-09-12T08:52:17.221Z,84.13
2022-09-12T08:54:47.632Z,83.65
2022-09-12T08:57:15.257Z,84.09
2022-09-12T08:59:44.950Z,84.56
2022-09-12T09:02:46.920Z,83.74
2022-09-12T09:05:41.099Z,83.35
2022-09-12T09:08:22.950Z,83.51
2022-09-12T09:11:11.102Z,82.70
2022-09-12T09:14:17.419Z,82.90
2022-09-12T09:16:46.296Z,82.84
2022-09-12T09:19:24.649Z,81.69
2022-09-12T09:22:06.589Z,81.04
2022-09-12T09:24:48.918Z,81.42
2022-09-12T09:27:41.000Z,80.29
2022-09-12T09:30:17.453Z,79.84
2022-09-12T09:32:49.082Z,79.13
2022-09-12T09:35:43.526Z,78.81
2022-09-12T09:38:41.874Z,78.92
2022-09-12T09:41:30.812Z,78.27
2022-09-12T09:43:58.543Z,78.61
2022-09-12T09:46:25.426Z,78.49
2022-09-12T09:48:53.951Z,77.63
2022-09-12T09:51:32.909Z,77.33
2022-09-12T09:54:13.566Z,76.63
2022-09-12T09:56:42.471Z,76.67
2022-09-12T09:59:10.121Z,76.20
2022-09-12T10:01:37.628Z,75.49
2022-09-12T10:04:04.447Z,74.45
2022-09-12T10:06:34.380Z,75.16
2022-09-12T10:09:28.498Z,75.82
2022-09-12T10:11:56.365Z,75.07
2022-09-12T10:14:36.739Z,75.23
2022-09-12T10:17:23.454Z,74.08
2022-09-12T10:20:10.511Z,72.86
2022-09-12T10:22:38.598Z,72.20
2022-09-12T10:25:12.337Z,71.07
2022-09-12T10:27:38.788Z,72.03
2022-09-12T10:30:18.484Z,70.77
2022-09-12T10:32:50.604Z,70.89
2022-09-12T10:35:24.501Z,70.29
2022-09-12T10:37:57.025Z,71.13
2022-09-12T10:40:29.617Z,70.77
2022-09-12T10:42:58.651Z,70.29
2022-09-12T10:45:37.574Z,70.50
2022-09-12T10:48:32.530Z,69.98
2022-09-12T10:51:00.838Z,69.13
2022-09-12T10:53:34.325Z,69.95
2022-09-12T10:56:07.175Z,70.64
2022-09-12T10:58:42.837Z,69.98
2022-09-12T11:01:25.939Z,67.91
2022-09-12T11:04:01.763Z,67.28
2022-09-12T11:06:39.940Z,65.11
2022-09-12T11:09:17.569Z,65.85
2022-09-12T11:12:14.547Z,63.76
2022-09-12T11:15:10.983Z,64.84
2022-09-12T11:17:46.951Z,63.41
2022-09-12T11:20:31.625Z,64.42
2022-09-12T11:23:10.502Z,64.31
2022-09-12T11:25:44.086Z,63.25
2022-09-12T11:28:45.355Z,63.78
2022-09-12T11:31:32.392Z,62.37
2022-09-12T11:34:02.827Z,61.85
2022-09-12T11:36:55.476Z,62.16
2022-09-12T11:39:33.036Z,60.22
2022-09-12T11:42:05.851Z,59.70
2022-09-12T11:44:40.427Z,60.88
2022-09-12T11:47:14.594Z,58.98
2022-09-12T11:49:52.306Z,60.38
2022-09-12T11:52:38.326Z,60.32
2022-09-12T11:55:08.793Z,61.16
2022-09-12T11:57:47.773Z,59.11
2022-09-12T12:00:25.499Z,59.49
2022-09-12T12:03:47.065Z,58.36
2022-09-12T12:06:30.395Z,60.23
2022-09-12T12:09:04.397Z,59.50
2022-09-12T12:11:42.305Z,58.54
2022-09-12T12:14:25.101Z,58.34
2022-09-12T12:16:57.451Z,57.69
2022-09-12T12:19:35.334Z,58.40
2022-09-12T12:22:29.519Z,57.87
2022-09-12T12:25:19.599Z,57.22
2022-09-12T12:28:07.489Z,57.89
2022-09-12T12:30:59.088Z,57.39
2022-09-12T12:33:30.504Z,53.94
2022-09-12T12:36:10.504Z,54.12
2022-09-12T12:38:43.125Z,54.00
2022-09-12T12:41:20.346Z,54.92
2022-09-12T12:43:52.300Z,53.52
2022-09-12T12:46:33.379Z,55.01
2022-09-12T12:49:27.250Z,54.44
2022-09-12T12:52:00.363Z,55.20
2022-09-12T12:54:43.731Z,54.63
2022-09-12T12:57:46.349Z,54.88
2022-09-12T13:00:33.407Z,54.60
2022-09-12T13:03:34.449Z,54.41
2022-09-12T13:06:37.811Z,54.49
2022-09-12T13:12:57.950Z,53.17
2022-09-12T13:15:37.158Z,52.63
2022-09-12T13:18:12.382Z,52.60
2022-09-12T13:20:56.780Z,52.33
2022-09-12T13:23:30.574Z,52.67
2022-09-12T13:26:01.766Z,52.73
2022-09-12T13:28:31.096Z,51.01
2022-09-12T13:31:02.911Z,51.38
2022-09-12T13:33:35.535Z,50.60
2022-09-12T13:36:19.137Z,51.23
2022-09-12T13:38:46.655Z,51.44
2022-09-12T14:07:01.613Z,50.29
2022-09-12T14:09:38.506Z,51.91
2022-09-12T14:12:25.115Z,53.08
2022-09-12T14:14:52.920Z,51.63
2022-09-12T14:17:29.764Z,52.72
2022-09-12T14:19:59.336Z,50.53
2022-09-12T14:22:29.298Z,50.38
2022-09-12T14:24:58.709Z,51.02
2022-09-12T14:27:31.817Z,51.17
2022-09-12T14:30:20.873Z,50.08
2022-09-12T14:33:12.201Z,50.46
2022-09-12T14:35:43.604Z,51.42
2022-09-12T14:38:13.136Z,50.79
2022-09-12T14:40:46.011Z,51.25
2022-09-12T14:43:28.262Z,51.90
2022-09-12T14:45:59.720Z,51.90
2022-09-12T14:48:30.776Z,51.15
2022-09-12T14:50:58.451Z,51.65
2022-09-12T14:53:30.548Z,52.43
2022-09-12T14:56:06.802Z,51.49
2022-09-12T14:58:34.034Z,49.96
2022-09-12T15:01:06.971Z,51.28
2022-09-12T15:03:49.412Z,50.96
2022-09-12T15:06:32.002Z,51.32
2022-09-12T15:09:02.580Z,50.87
2022-09-12T15:11:29.219Z,50.92
2022-09-12T15:13:55.676Z,50.90
2022-09-12T15:16:22.185Z,50.96
2022-09-12T15:18:48.702Z,51.04
2022-09-12T15:21:20.266Z,51.53
2022-09-12T15:23:51.832Z,51.69
2022-09-12T15:26:22.012Z,51.60
2022-09-12T15:28:48.850Z,52.77
2022-09-12T15:31:30.195Z,52.95
2022-09-12T15:33:59.277Z,53.70
2022-09-12T15:36:26.781Z,54.16
2022-09-12T15:38:53.648Z,52.74
2022-09-12T15:41:38.074Z,53.40
2022-09-12T15:44:05.536Z,52.23
2022-09-12T15:46:32.151Z,53.32
2022-09-12T15:48:58.635Z,54.82
2022-09-12T15:51:25.475Z,53.91
2022-09-12T15:53:52.686Z,54.16
2022-09-12T15:56:21.177Z,52.19
2022-09-12T15:58:58.343Z,51.64
2022-09-12T16:01:26.318Z,52.80
2022-09-12T16:03:52.817Z,53.03
2022-09-12T16:06:19.273Z,52.69
2022-09-12T16:08:45.907Z,52.85
2022-09-12T16:11:20.830Z,53.34
2022-09-12T16:13:47.330Z,52.37
2022-09-12T16:16:13.842Z,51.65
2022-09-12T16:18:40.814Z,53.39
2022-09-12T16:21:10.102Z,51.74
2022-09-12T16:23:43.147Z,52.70
2022-09-12T16:26:09.587Z,52.03
2022-09-12T16:28:36.358Z,51.23
2022-09-12T16:31:05.855Z,50.82
2022-09-12T16:33:32.696Z,52.23
2022-09-12T16:36:04.938Z,52.52
2022-09-12T16:38:32.563Z,51.15
2022-09-12T16:41:04.118Z,51.88
2022-09-12T16:43:31.788Z,52.57
2022-09-12T16:46:05.460Z,52.99
2022-09-12T16:48:32.394Z,53.11
2022-09-12T16:51:01.428Z,52.69
2022-09-12T16:53:32.143Z,53.07
2022-09-12T16:55:58.848Z,53.38
2022-09-12T16:58:25.588Z,54.73
2022-09-12T17:01:03.810Z,56.06
2022-09-12T17:03:30.594Z,57.89
2022-09-12T17:06:01.656Z,57.03
2022-09-12T17:08:28.986Z,56.20
2022-09-12T17:11:10.550Z,57.68
2022-09-12T17:14:00.500Z,57.98
2022-09-12T17:16:24.893Z,57.84
2022-09-12T17:18:52.527Z,57.69
2022-09-12T17:21:19.551Z,58.52
2022-09-12T17:23:46.343Z,58.54
2022-09-12T17:26:13.707Z,59.05
2022-09-12T17:28:40.511Z,59.92
2022-09-12T17:31:09.589Z,59.82
2022-09-12T17:33:37.104Z,61.37
2022-09-12T17:36:15.039Z,60.63
2022-09-12T17:38:43.060Z,61.11
2022-09-12T17:41:23.822Z,60.94
2022-09-12T17:43:55.815Z,61.01
2022-09-12T17:46:24.651Z,61.33
2022-09-12T17:48:53.489Z,61.37
2022-09-12T17:51:20.903Z,61.18
2022-09-12T17:53:47.533Z,62.02
2022-09-12T17:56:15.600Z,62.43
2022-09-12T17:58:42.149Z,62.96
2022-09-12T18:01:32.847Z,62.77
2022-09-12T18:04:00.780Z,62.65
2022-09-12T18:06:29.218Z,63.08
2022-09-12T18:08:55.843Z,63.48
2022-09-12T18:11:22.326Z,63.33
2022-09-12T18:13:48.947Z,63.65
2022-09-12T18:16:15.679Z,64.11
2022-09-12T18:18:42.283Z,64.23
2022-09-12T18:21:11.468Z,64.41
2022-09-12T18:23:38.271Z,64.29
2022-09-12T18:26:09.898Z,64.49
2022-09-12T18:28:38.933Z,64.76
2022-09-12T18:31:11.921Z,65.58
2022-09-12T18:33:38.433Z,65.69
2022-09-12T18:36:06.139Z,65.84
2022-09-12T18:38:32.659Z,66.05
2022-09-12T18:41:07.300Z,66.27
2022-09-12T18:43:34.700Z,66.83
2022-09-12T18:46:10.354Z,67.23
2022-09-12T18:48:37.697Z,67.51
2022-09-12T18:51:12.264Z,67.67
2022-09-12T18:53:39.128Z,67.91
2022-09-12T18:56:08.620Z,68.39
2022-09-12T18:58:40.534Z,69.11
2022-09-12T19:01:11.632Z,69.21
2022-09-12T19:03:38.272Z,69.65
2022-09-12T19:06:17.544Z,69.93
2022-09-12T19:08:45.059Z,70.34
2022-09-12T19:11:11.946Z,70.90
2022-09-12T19:13:40.925Z,70.99
2022-09-12T19:16:10.243Z,71.33
2022-09-12T19:18:38.556Z,71.39
2022-09-12T19:21:06.449Z,72.03
2022-09-12T19:23:35.691Z,71.36
2022-09-12T19:26:05.757Z,72.16
2022-09-12T19:28:33.168Z,72.54
2022-09-12T19:30:59.847Z,72.21
2022-09-12T19:33:26.350Z,72.48
2022-09-12T19:35:52.778Z,72.23
2022-09-12T19:38:19.577Z,71.83
2022-09-12T19:40:56.832Z,72.00
2022-09-12T19:43:24.206Z,71.45
2022-09-12T19:45:51.913Z,71.64
2022-09-12T19:48:19.488Z,71.55
2022-09-12T19:50:45.962Z,72.07
2022-09-12T19:53:12.694Z,71.36
2022-09-12T19:55:39.188Z,71.67
2022-09-12T19:58:06.158Z,71.59
2022-09-12T20:00:34.290Z,71.64
2022-09-12T20:03:01.645Z,71.43
2022-09-12T20:05:28.448Z,71.70
2022-09-12T20:07:54.913Z,71.56
2022-09-12T20:10:21.393Z,72.28
2022-09-12T20:12:47.824Z,71.84
2022-09-12T20:15:14.347Z,72.25
2022-09-12T20:17:40.899Z,72.37
2022-09-12T20:20:09.414Z,73.22
2022-09-12T20:22:39.866Z,74.74
2022-09-12T20:25:07.188Z,74.88
2022-09-12T20:27:33.918Z,74.55
2022-09-12T20:30:00.419Z,74.61
2022-09-12T20:32:28.932Z,74.54
2022-09-12T20:34:56.395Z,74.82
2022-09-12T20:37:23.296Z,74.36
2022-09-12T20:39:50.988Z,74.31
2022-09-12T20:42:17.794Z,74.32
2022-09-12T20:44:44.236Z,74.71
2022-09-12T20:47:10.684Z,75.08
2022-09-12T20:49:37.149Z,75.14
2022-09-12T20:52:04.529Z,75.51
2022-09-12T20:54:31.113Z,75.11
2022-09-12T20:56:57.497Z,75.10
2022-09-12T20:59:23.935Z,75.15
2022-09-12T21:01:50.468Z,75.96
2022-09-12T21:04:18.317Z,75.80
2022-09-12T21:06:44.770Z,75.53
2022-09-12T21:09:11.318Z,75.57
2022-09-12T21:11:37.852Z,75.28
2022-09-12T21:14:04.315Z,75.84
2022-09-12T21:16:30.896Z,76.10
2022-09-12T21:18:59.543Z,76.23
2022-09-12T21:21:26.451Z,76.75
2022-09-12T21:23:55.214Z,77.05
2022-09-12T21:26:21.734Z,77.35
2022-09-12T21:28:48.549Z,77.43
2022-09-12T21:31:15.070Z,77.64
2022-09-12T21:33:41.663Z,77.84
2022-09-12T21:36:08.715Z,78.02
2022-09-12T21:38:35.385Z,77.31
2022-09-12T21:41:13.186Z,77.32
2022-09-12T21:43:40.680Z,77.55
2022-09-12T21:46:07.660Z,77.30
2022-09-12T21:48:34.379Z,77.79
2022-09-12T21:51:01.235Z,77.84
2022-09-12T21:53:28.067Z,77.83
2022-09-12T21:55:54.998Z,78.09
2022-09-12T21:58:21.458Z,78.47
2022-09-12T22:00:47.929Z,78.52
2022-09-12T22:03:15.364Z,78.71
2022-09-12T22:05:41.810Z,78.76
2022-09-12T22:08:08.594Z,78.62
2022-09-12T22:10:36.093Z,78.79
2022-09-12T22:13:02.924Z,78.49
2022-09-12T22:15:40.525Z,78.26
2022-09-12T22:18:07.668Z,77.66
2022-09-12T22:20:34.141Z,77.77
2022-09-12T22:23:23.831Z,77.55
2022-09-12T22:25:54.295Z,77.83
2022-09-12T22:28:21.247Z,77.67
2022-09-12T22:30:48.551Z,77.71
2022-09-12T22:33:15.458Z,77.09
2022-09-12T22:35:42.458Z,77.10
2022-09-12T22:38:09.211Z,77.10
2022-09-12T22:40:35.833Z,77.06
2022-09-12T22:43:02.405Z,77.33
2022-09-12T22:45:28.914Z,77.58
2022-09-12T22:47:59.149Z,77.70
2022-09-12T22:50:27.592Z,77.92
2022-09-12T22:52:54.157Z,78.39
2022-09-12T22:55:20.637Z,78.39
2022-09-12T22:57:47.182Z,78.55
2022-09-12T23:00:14.816Z,78.34
2022-09-12T23:02:41.412Z,78.82
2022-09-12T23:05:08.186Z,79.85
2022-09-12T23:07:34.642Z,80.37
2022-09-12T23:10:01.229Z,81.05
2022-09-12T23:12:27.687Z,81.41
2022-09-12T23:14:54.187Z,81.42
2022-09-12T23:17:20.622Z,81.57
2022-09-12T23:19:47.013Z,80.96
2022-09-12T23:22:13.520Z,81.13
2022-09-12T23:24:39.962Z,80.74
2022-09-12T23:27:06.432Z,80.32
2022-09-12T23:29:35.305Z,79.80
2022-09-12T23:32:03.528Z,79.86
2022-09-12T23:34:30.003Z,79.40
2022-09-12T23:36:56.735Z,79.56
2022-09-12T23:39:23.417Z,79.80
2022-09-12T23:41:50.286Z,80.28
2022-09-12T23:44:16.765Z,80.06
2022-09-12T23:46:43.182Z,80.15
2022-09-12T23:49:09.630Z,80.09
2022-09-12T23:51:36.123Z,80.21
2022-09-12T23:54:02.628Z,79.53
2022-09-12T23:56:29.145Z,79.67
2022-09-12T23:58:55.602Z,79.47
